Time;durP1;ratioP1;P1;durP2;ratioP2;P2;SDS_P1;SDS_P2;PMS_P1;PMS_P2;Temp;Humidity;BMP_temperature;BMP_pressure;BME280_temperature;BME280_humidity;BME280_pressure;Samples;Min_cycle;Max_cycle;Signal;HPM_P1;HPM_P2
2022/01/21 00:02:27;;;;;;;4.83;2.77;;;6.80;47.80;;;6.79;40.39;94771.09;5008512;28;20960;-55
2022/01/21 00:04:54;;;;;;;5.73;3.10;;;6.80;47.90;;;6.76;40.76;94770.50;5003854;28;20525;-55
2022/01/21 00:07:23;;;;;;;5.43;3.43;;;6.80;48.10;;;6.74;40.62;94777.63;5008638;28;20454;-55
2022/01/21 00:09:50;;;;;;;5.53;3.00;;;6.80;48.20;;;6.72;40.74;94780.34;5008327;28;20461;-55
2022/01/21 00:12:17;;;;;;;3.20;2.90;;;6.70;48.10;;;6.71;40.51;94781.31;5007210;28;20519;-56
2022/01/21 00:14:46;;;;;;;2.80;2.30;;;6.70;48.10;;;6.70;40.18;94784.88;5007947;28;20453;-55
2022/01/21 00:17:15;;;;;;;3.40;3.10;;;6.70;48.10;;;6.68;40.64;94792.00;5007437;28;21073;-56
2022/01/21 00:19:45;;;;;;;3.73;2.80;;;6.70;48.20;;;6.69;41.09;94798.88;5004880;28;20886;-56
2022/01/21 00:30:27;;;;;;;6.70;3.70;;;6.80;48.60;;;6.76;40.80;94807.09;5006222;28;20452;-56
2022/01/21 00:32:55;;;;;;;6.63;3.50;;;6.80;48.70;;;6.77;41.16;94819.19;5007736;28;20477;-56
2022/01/21 00:35:23;;;;;;;6.63;2.83;;;6.80;48.80;;;6.76;41.17;94817.56;5004557;28;20565;-55
2022/01/21 00:37:50;;;;;;;5.80;3.10;;;6.80;48.80;;;6.77;40.87;94819.19;5007165;28;20461;-56
2022/01/21 00:40:22;;;;;;;4.23;3.50;;;6.80;48.80;;;6.75;41.25;94824.53;5008956;28;20465;-55
2022/01/21 00:43:05;;;;;;;3.20;2.90;;;6.80;49.30;;;6.77;41.64;94825.28;5007145;28;20446;-55
2022/01/21 00:45:33;;;;;;;9.83;3.43;;;6.80;49.40;;;6.79;41.98;94823.38;5008273;28;20572;-57
2022/01/21 00:48:00;;;;;;;4.20;2.80;;;6.80;50.10;;;6.82;41.79;94838.00;5012126;28;20450;-56
2022/01/21 00:50:27;;;;;;;4.80;3.13;;;6.80;50.20;;;6.80;42.27;94840.72;5010407;28;20474;-57
2022/01/21 00:52:55;;;;;;;10.00;3.17;;;6.80;50.10;;;6.78;42.89;94853.06;5014463;28;21008;-57
2022/01/21 00:55:23;;;;;;;3.60;1.73;;;6.80;51.30;;;6.76;43.95;94854.16;5014636;28;20931;-56
2022/01/21 00:57:51;;;;;;;4.17;2.67;;;6.80;53.50;;;6.74;44.79;94861.25;5012911;28;20503;-55
2022/01/21 01:00:18;;;;;;;3.43;2.80;;;6.80;54.10;;;6.68;46.86;94859.97;5013749;28;20476;-57
2022/01/21 01:02:45;;;;;;;3.37;2.80;;;6.80;56.80;;;6.61;47.56;94853.53;5014072;28;20461;-56
2022/01/21 01:05:13;;;;;;;5.93;2.70;;;6.70;57.90;;;6.56;49.23;94859.09;5013549;28;20492;-57
2022/01/21 01:07:40;;;;;;;4.30;3.40;;;6.70;60.10;;;6.54;49.14;94849.72;5011929;28;20504;-56
2022/01/21 01:10:12;;;;;;;6.30;2.97;;;6.60;60.50;;;6.53;49.80;94853.28;5013652;28;20495;-56
2022/01/21 01:12:54;;;;;;;2.90;2.70;;;6.50;61.00;;;6.50;50.22;94846.50;5011363;28;20445;-57
2022/01/21 01:20:51;;;;;;;3.53;2.70;;;6.50;62.20;;;6.48;50.09;94830.13;5014319;28;20466;-56
2022/01/21 01:23:26;;;;;;;7.63;3.10;;;6.60;62.00;;;6.49;49.74;94828.31;5012170;28;20977;-55
2022/01/21 01:28:40;;;;;;;3.40;2.40;;;6.60;62.80;;;6.48;50.90;94824.06;5014241;28;21016;-56
2022/01/21 01:31:07;;;;;;;2.33;2.20;;;6.60;64.60;;;6.43;51.90;94822.63;5012516;28;20917;-56
2022/01/21 01:33:39;;;;;;;2.40;2.20;;;6.50;65.90;;;6.36;51.86;94813.56;5013196;28;20993;-55
2022/01/21 01:36:08;;;;;;;3.03;2.73;;;6.40;66.80;;;6.31;51.39;94820.94;5014925;28;20469;-55
2022/01/21 01:39:00;;;;;;;2.50;2.30;;;6.40;66.80;;;6.27;51.97;94812.50;5014645;28;20484;-57
2022/01/21 01:41:33;;;;;;;3.70;3.07;;;6.40;67.30;;;6.25;52.96;94811.75;5013571;28;20473;-55
2022/01/21 01:49:35;;;;;;;4.30;2.90;;;6.40;69.00;;;6.25;53.05;94814.38;5012690;28;20491;-57
2022/01/21 01:52:04;;;;;;;3.97;3.27;;;6.30;69.90;;;6.24;54.89;94810.13;5012521;28;20469;-56
2022/01/21 01:54:32;;;;;;;5.70;3.30;;;6.30;73.10;;;6.24;54.77;94817.09;5012593;28;20470;-56
2022/01/21 01:56:59;;;;;;;3.53;3.33;;;6.30;73.10;;;6.22;54.66;94819.00;5013935;28;21021;-57
2022/01/21 01:59:28;;;;;;;6.50;3.63;;;6.30;72.30;;;6.19;54.51;94821.84;5006213;28;20531;-57
2022/01/21 02:01:57;;;;;;;3.93;3.57;;;6.30;73.10;;;6.18;54.62;94828.00;5010697;28;20480;-56
2022/01/21 02:04:24;;;;;;;3.63;3.33;;;6.30;73.10;;;6.14;55.29;94821.38;5012726;28;20884;-56
2022/01/21 02:06:52;;;;;;;3.60;2.87;;;6.20;75.80;;;6.06;57.13;94825.38;5010502;28;20546;-56
2022/01/21 02:09:19;;;;;;;3.97;3.30;;;6.20;77.90;;;5.98;55.96;94812.06;5010964;28;20541;-56
2022/01/21 02:11:47;;;;;;;3.40;3.10;;;6.10;77.10;;;5.91;59.28;94816.03;5010939;28;21056;-56
2022/01/21 02:14:20;;;;;;;3.43;3.20;;;6.00;81.30;;;5.82;59.52;94821.91;5009713;28;20449;-55
2022/01/21 02:22:32;;;;;;;8.40;4.40;;;5.80;81.50;;;5.55;57.71;94821.19;5010396;28;20495;-55
2022/01/21 02:25:15;;;;;;;4.77;3.40;;;5.70;81.90;;;5.50;57.01;94820.72;5010612;28;20507;-57
2022/01/21 02:27:44;;;;;;;3.73;3.40;;;5.70;78.80;;;5.45;57.84;94819.34;5008392;28;20450;-56
2022/01/21 02:30:18;;;;;;;5.13;4.27;;;5.60;81.20;;;5.39;60.33;94820.63;5010148;28;20454;-56
2022/01/21 02:32:47;;;;;;;9.03;4.50;;;5.50;85.80;;;5.34;60.53;94823.56;5007285;28;20477;-57
2022/01/21 02:35:14;;;;;;;7.60;4.60;;;5.50;86.10;;;5.28;60.31;94824.00;5010246;28;20470;-58
2022/01/21 02:37:43;;;;;;;11.80;4.63;;;5.40;86.40;;;5.18;61.38;94834.25;5011610;28;21009;-56
2022/01/21 02:40:11;;;;;;;7.07;4.60;;;5.30;87.20;;;5.14;59.79;94827.59;5009684;28;21004;-56
2022/01/21 02:42:39;;;;;;;5.60;4.40;;;5.30;86.10;;;5.11;59.16;94838.25;5009842;28;20461;-56
2022/01/21 02:45:08;;;;;;;7.87;4.57;;;5.20;84.50;;;5.10;59.62;94838.34;5009328;28;20457;-55
2022/01/21 02:47:35;;;;;;;5.80;4.03;;;5.20;85.00;;;5.10;59.90;94840.97;5007635;28;21176;-56
2022/01/21 02:50:02;;;;;;;5.37;4.67;;;5.20;85.40;;;5.10;59.58;94838.34;5010743;28;20454;-56
2022/01/21 02:52:39;;;;;;;5.90;4.73;;;5.20;85.70;;;5.09;60.75;94834.06;5011016;28;20461;-56
2022/01/21 02:55:09;;;;;;;5.57;4.97;;;5.20;87.20;;;5.06;60.46;94837.72;5010406;28;20537;-55
2022/01/21 02:57:37;;;;;;;5.20;4.70;;;5.20;87.20;;;5.03;61.44;94827.50;5009888;28;20454;-55
2022/01/21 03:00:06;;;;;;;5.63;4.40;;;5.20;88.50;;;4.99;62.20;94839.91;5007729;28;20453;-55
2022/01/21 03:02:33;;;;;;;5.80;5.23;;;5.10;89.30;;;4.95;62.26;94835.03;5009158;28;20507;-56
2022/01/21 03:05:04;;;;;;;5.67;5.00;;;5.10;90.10;;;4.88;63.83;94839.00;5010208;28;20469;-55
2022/01/21 03:07:32;;;;;;;5.97;4.90;;;5.00;91.30;;;4.81;62.15;94830.78;5008082;28;20489;-56
2022/01/21 03:09:59;;;;;;;5.60;5.10;;;5.00;90.10;;;4.77;61.40;94835.38;5009203;28;20453;-55
2022/01/21 03:12:28;;;;;;;7.50;4.90;;;4.90;89.20;;;4.76;60.87;94831.09;5011913;28;20972;-57
2022/01/21 03:14:55;;;;;;;6.90;5.10;;;4.90;88.50;;;4.75;61.22;94839.84;5009103;28;20458;-56
2022/01/21 03:17:22;;;;;;;7.87;5.40;;;4.90;88.80;;;4.74;61.30;94842.53;5009448;28;20515;-57
2022/01/21 03:19:49;;;;;;;4.53;4.13;;;4.90;89.20;;;4.76;61.46;94851.09;5008682;28;20469;-56
2022/01/21 03:22:17;;;;;;;7.63;5.90;;;4.90;89.70;;;4.75;60.65;94858.06;5009364;28;20496;-57
2022/01/21 03:24:44;;;;;;;7.27;6.53;;;4.90;88.90;;;4.74;61.27;94852.97;5007866;28;20454;-55
2022/01/21 03:27:11;;;;;;;6.07;5.47;;;4.90;89.10;;;4.72;60.90;94847.03;5009594;28;20830;-56
2022/01/21 03:29:40;;;;;;;5.00;4.60;;;4.80;88.80;;;4.70;61.73;94864.56;5009030;28;20515;-56
2022/01/21 03:32:08;;;;;;;6.63;5.17;;;4.80;90.00;;;4.66;60.99;94867.38;5007568;28;20482;-57
2022/01/21 03:34:36;;;;;;;4.77;4.37;;;4.80;88.90;;;4.63;61.51;94867.56;5008050;28;20449;-56
2022/01/21 03:37:03;;;;;;;2.93;2.73;;;4.80;90.00;;;4.59;64.94;94876.53;5009850;28;20470;-57
2022/01/21 03:39:31;;;;;;;1.67;1.57;;;4.80;92.20;;;4.52;63.97;94877.84;5008035;28;20454;-56
2022/01/21 03:41:58;;;;;;;2.40;2.20;;;4.70;92.00;;;4.44;63.24;94880.16;5008919;28;20581;-55
2022/01/21 03:44:25;;;;;;;3.33;3.00;;;4.60;91.50;;;4.40;62.63;94878.69;5007469;28;20584;-57
2022/01/21 03:46:54;;;;;;;1.90;1.70;;;4.50;90.80;;;4.38;62.65;94876.19;5007851;28;20500;-56
2022/01/21 03:49:21;;;;;;;2.57;1.60;;;4.50;91.00;;;4.37;63.14;94884.09;5008921;28;20450;-56
2022/01/21 03:51:48;;;;;;;1.90;1.80;;;4.50;91.20;;;4.34;62.77;94879.09;5006709;28;20759;-61
2022/01/21 03:54:16;;;;;;;2.43;2.20;;;4.50;91.20;;;4.34;63.04;94881.69;5015127;28;20462;-57
2022/01/21 03:56:43;;;;;;;2.67;2.47;;;4.50;91.00;;;4.33;62.71;94891.28;5011304;28;20473;-57
2022/01/21 03:59:10;;;;;;;2.50;2.10;;;4.50;90.90;;;4.28;62.16;94896.78;5002841;28;20990;-57
2022/01/21 04:01:37;;;;;;;3.33;3.07;;;4.50;90.20;;;4.21;62.24;94890.31;5006928;28;21046;-57
2022/01/21 04:04:06;;;;;;;1.67;1.57;;;4.40;90.70;;;4.19;62.48;94891.38;5008867;28;20843;-56
2022/01/21 04:06:34;;;;;;;1.77;1.67;;;4.40;90.70;;;4.12;64.00;94896.97;5005449;28;20511;-57
2022/01/21 04:09:01;;;;;;;1.70;1.60;;;4.30;91.50;;;4.06;63.00;94893.91;5007801;28;20461;-56
2022/01/21 04:11:28;;;;;;;1.73;1.63;;;4.30;91.00;;;4.00;63.58;94902.13;5008543;28;20477;-55
2022/01/21 04:13:56;;;;;;;1.93;1.80;;;4.20;91.10;;;3.94;63.02;94905.97;5009325;28;20843;-57
2022/01/21 04:16:23;;;;;;;2.20;2.10;;;4.20;91.00;;;3.88;63.39;94904.59;5008443;28;20473;-56
2022/01/21 04:18:50;;;;;;;1.53;1.43;;;4.10;91.40;;;3.86;63.53;94910.84;5008212;28;20969;-58
2022/01/21 04:21:19;;;;;;;1.27;1.10;;;4.10;91.30;;;3.82;63.45;94904.97;5002510;28;20809;-57
2022/01/21 04:23:46;;;;;;;2.03;1.50;;;4.10;91.30;;;3.80;64.18;94911.22;5008908;28;20445;-55
2022/01/21 04:26:14;;;;;;;1.50;1.37;;;4.00;92.00;;;3.79;63.71;94910.38;5005388;28;20493;-57
2022/01/21 04:28:41;;;;;;;4.47;4.03;;;4.00;92.10;;;3.80;65.06;94925.06;5004972;28;20446;-56
2022/01/21 04:31:08;;;;;;;3.00;2.80;;;4.00;92.30;;;3.81;65.13;94924.13;5005184;28;20478;-56
2022/01/21 04:33:35;;;;;;;3.00;2.80;;;4.00;92.80;;;3.82;64.54;94931.00;5006414;28;20457;-57
2022/01/21 04:36:03;;;;;;;2.00;1.70;;;4.00;92.60;;;3.86;65.72;94937.69;5002633;28;20474;-56
2022/01/21 04:38:31;;;;;;;1.80;1.70;;;4.00;93.10;;;3.89;64.40;94934.88;5005512;28;20636;-57
2022/01/21 04:41:05;;;;;;;2.20;2.10;;;4.00;92.60;;;3.92;64.49;94937.28;5003898;28;20827;-58
2022/01/21 04:49:02;;;;;;;2.00;1.80;;;4.10;93.60;;;3.94;64.82;94951.03;5001790;28;20437;-58
2022/01/21 04:51:37;;;;;;;1.50;1.40;;;4.10;93.00;;;3.94;65.69;94953.63;5005535;28;20484;-57
2022/01/21 04:54:06;;;;;;;1.53;1.43;;;4.10;93.70;;;3.95;64.63;94960.50;5003824;28;20441;-57
2022/01/21 04:56:33;;;;;;;1.53;1.43;;;4.10;92.90;;;3.98;64.30;94963.84;5003694;28;20477;-54
2022/01/21 04:59:02;;;;;;;2.40;1.70;;;4.10;92.40;;;3.92;63.78;94962.47;5006643;28;20465;-58
2022/01/21 05:01:29;;;;;;;1.83;1.73;;;4.10;92.20;;;3.83;63.98;94974.28;5005227;28;20473;-56
2022/01/21 05:03:57;;;;;;;1.97;1.87;;;4.10;92.10;;;3.76;64.28;94979.06;5004154;28;20472;-58
2022/01/21 05:06:24;;;;;;;2.40;2.20;;;4.00;92.40;;;3.71;64.80;94975.88;5003403;28;20485;-58
2022/01/21 05:08:54;;;;;;;2.40;2.30;;;4.00;92.30;;;3.67;65.70;94969.22;5006363;28;20524;-58
2022/01/21 05:11:22;;;;;;;1.63;1.53;;;3.90;93.30;;;3.62;64.57;94973.84;5005216;28;20472;-56
2022/01/21 05:13:53;;;;;;;2.07;1.97;;;3.90;92.90;;;3.57;64.71;94975.91;5005161;28;20453;-59
2022/01/21 05:16:32;;;;;;;1.10;1.00;;;3.80;92.20;;;3.51;64.64;94977.13;5007894;28;20493;-56
2022/01/21 05:19:02;;;;;;;2.40;1.57;;;3.80;92.90;;;3.40;66.13;94976.94;5005065;28;20529;-58
2022/01/21 05:21:29;;;;;;;1.93;1.83;;;3.70;93.00;;;3.34;67.29;94987.72;5008337;28;20485;-56
2022/01/21 05:23:56;;;;;;;2.70;2.50;;;3.60;93.90;;;3.32;66.39;94994.78;5004979;28;20520;-58
2022/01/21 05:26:35;;;;;;;2.87;2.63;;;3.60;93.60;;;3.31;66.31;95006.94;5003867;28;20496;-56
2022/01/21 05:29:02;;;;;;;3.13;2.87;;;3.60;93.70;;;3.34;65.41;95005.91;5004020;28;20816;-57
2022/01/21 05:31:29;;;;;;;2.13;1.50;;;3.50;93.40;;;3.33;66.52;95018.09;5004482;28;20986;-58
2022/01/21 05:33:57;;;;;;;3.00;1.43;;;3.50;94.40;;;3.29;67.02;95018.38;5005927;28;20446;-57
2022/01/21 05:36:26;;;;;;;1.60;1.20;;;3.50;94.70;;;3.22;67.56;95026.53;5008614;28;20659;-57
2022/01/21 05:38:54;;;;;;;1.37;1.20;;;3.40;95.20;;;3.21;66.47;95031.81;5007809;28;20465;-57
2022/01/21 05:41:23;;;;;;;1.30;0.83;;;3.40;94.40;;;3.19;65.40;95033.66;5008913;28;20469;-57
2022/01/21 05:44:00;;;;;;;1.40;1.30;;;3.40;93.70;;;3.17;66.35;95048.50;5006216;28;20458;-56
2022/01/21 05:46:39;;;;;;;0.80;0.70;;;3.40;94.40;;;3.17;65.92;95048.50;5007390;28;20469;-56
2022/01/21 05:49:07;;;;;;;0.90;0.80;;;3.40;94.30;;;3.12;66.55;95051.38;5007329;28;20450;-56
2022/01/21 05:51:35;;;;;;;2.30;1.50;;;3.30;94.30;;;3.07;66.21;95048.22;5010970;28;20830;-58
2022/01/21 05:54:02;;;;;;;1.43;1.30;;;3.30;94.10;;;3.04;66.38;95069.19;5008119;28;20476;-56
2022/01/21 05:56:31;;;;;;;3.00;1.37;;;3.20;94.40;;;3.03;66.46;95072.69;5009687;28;20479;-57
2022/01/21 05:59:00;;;;;;;1.73;1.63;;;3.20;94.20;;;3.03;68.00;95075.31;5010368;28;20457;-57
2022/01/21 06:01:27;;;;;;;1.43;1.33;;;3.20;95.00;;;3.00;67.19;95080.69;5004345;28;20603;-56
2022/01/21 06:03:54;;;;;;;1.80;1.70;;;3.20;94.60;;;2.99;65.95;95086.78;5010605;28;20511;-57
2022/01/21 06:06:22;;;;;;;1.53;1.30;;;3.20;94.00;;;3.00;65.59;95096.25;5005927;28;20595;-56
2022/01/21 06:08:49;;;;;;;2.53;1.60;;;3.20;94.00;;;3.01;66.57;95095.34;5009886;28;20449;-58
2022/01/21 06:11:17;;;;;;;5.47;2.23;;;3.20;94.60;;;3.02;66.76;95099.59;5011618;28;20480;-57
2022/01/21 06:13:46;;;;;;;4.00;1.97;;;3.20;94.40;;;3.01;67.65;95101.38;5010710;28;20446;-57
2022/01/21 06:16:15;;;;;;;2.23;2.00;;;3.20;95.10;;;2.97;67.34;95110.25;5009742;28;20465;-56
2022/01/21 06:18:43;;;;;;;1.50;1.40;;;3.20;94.60;;;2.92;66.55;95106.28;5011189;28;20814;-57
2022/01/21 06:21:10;;;;;;;1.47;1.10;;;3.10;94.40;;;2.84;66.78;95112.72;5008747;28;20477;-57
2022/01/21 06:23:37;;;;;;;1.37;1.27;;;3.10;94.10;;;2.78;65.04;95114.84;5010822;28;20445;-56
2022/01/21 06:26:05;;;;;;;4.10;1.20;;;3.00;93.50;;;2.67;65.14;95118.03;5010315;28;20879;-57
2022/01/21 06:28:33;;;;;;;6.13;0.83;;;2.90;93.60;;;2.59;65.94;95118.47;5010227;28;20489;-57
2022/01/21 06:31:00;;;;;;;3.20;0.90;;;2.80;93.40;;;2.54;65.66;95123.09;5007413;28;21089;-57
2022/01/21 06:33:29;;;;;;;1.10;1.00;;;2.80;93.40;;;2.51;64.52;95134.47;5006963;28;20466;-58
2022/01/21 06:35:56;;;;;;;1.10;1.00;;;2.70;93.10;;;2.49;65.72;95136.31;5009510;28;20473;-58
2022/01/21 06:38:23;;;;;;;1.80;1.70;;;2.70;93.20;;;2.48;64.90;95134.63;5007251;28;20454;-57
2022/01/21 06:40:51;;;;;;;3.67;1.87;;;2.70;92.90;;;2.48;65.07;95139.84;5007369;28;21020;-56
2022/01/21 06:43:18;;;;;;;4.67;2.17;;;2.70;92.50;;;2.50;64.58;95142.34;5010665;28;21056;-57
2022/01/21 06:45:46;;;;;;;2.77;2.40;;;2.70;92.60;;;2.54;64.77;95145.59;5008819;28;20482;-57
2022/01/21 06:48:13;;;;;;;8.63;4.00;;;2.70;92.80;;;2.57;65.12;95150.63;5009463;28;20492;-55
2022/01/21 06:50:42;;;;;;;5.20;2.90;;;2.80;92.50;;;2.63;64.30;95163.28;5010199;28;20492;-57
2022/01/21 06:53:10;;;;;;;4.50;2.50;;;2.80;92.70;;;2.65;64.53;95172.66;5010201;28;20461;-57
2022/01/21 06:55:37;;;;;;;2.30;1.80;;;2.80;92.40;;;2.66;63.56;95178.69;5009087;28;20536;-56
2022/01/21 06:58:05;;;;;;;1.70;1.60;;;2.90;92.40;;;2.66;64.08;95189.06;5009843;28;20464;-58
2022/01/21 07:00:32;;;;;;;1.70;1.23;;;2.80;92.10;;;2.65;64.40;95182.19;5008609;28;20466;-58
2022/01/21 07:02:59;;;;;;;1.90;1.50;;;2.80;92.30;;;2.65;64.09;95190.84;5009104;28;20461;-57
2022/01/21 07:05:29;;;;;;;2.03;1.93;;;2.90;92.30;;;2.66;64.63;95209.84;5008428;28;20567;-56
2022/01/21 07:07:58;;;;;;;1.57;1.40;;;2.90;92.30;;;2.69;63.89;95209.69;5009096;28;20551;-57
2022/01/21 07:10:27;;;;;;;1.67;1.07;;;2.90;92.30;;;2.72;65.02;95201.72;5008821;28;20545;-58
2022/01/21 07:12:54;;;;;;;1.70;1.37;;;2.90;92.70;;;2.77;62.85;95210.09;5009101;28;20473;-57
2022/01/21 07:15:22;;;;;;;1.93;1.30;;;2.90;91.90;;;2.80;63.37;95212.50;5008286;28;20480;-57
2022/01/21 07:17:52;;;;;;;13.00;1.60;;;3.00;91.90;;;2.84;64.11;95214.03;5009435;28;20454;-57
2022/01/21 07:20:19;;;;;;;1.73;1.10;;;3.00;92.60;;;2.86;64.24;95222.56;5006387;28;20492;-57
2022/01/21 07:22:47;;;;;;;6.80;2.20;;;3.00;92.20;;;2.87;64.50;95229.44;5009937;28;21009;-58
2022/01/21 07:25:16;;;;;;;6.97;2.83;;;3.10;92.40;;;2.91;64.03;95235.31;5007923;28;20484;-57
2022/01/21 07:27:44;;;;;;;3.20;2.90;;;3.10;91.90;;;2.95;63.48;95233.41;5009813;28;20559;-58
2022/01/21 07:30:13;;;;;;;3.07;1.50;;;3.10;91.90;;;2.99;63.16;95234.88;5008648;28;20453;-58
2022/01/21 07:32:40;;;;;;;1.90;1.80;;;3.20;92.00;;;2.98;63.42;95233.22;5005498;28;20557;-57
2022/01/21 07:35:09;;;;;;;2.00;1.90;;;3.20;91.50;;;2.98;63.58;95244.44;5006011;28;20453;-57
2022/01/21 07:37:36;;;;;;;1.53;1.43;;;3.20;91.70;;;2.96;62.23;95248.03;5009329;28;20450;-58
2022/01/21 07:40:04;;;;;;;5.03;1.60;;;3.20;91.40;;;2.96;62.84;95245.44;5007698;28;20545;-57
2022/01/21 07:42:33;;;;;;;2.20;1.53;;;3.10;91.20;;;2.98;63.33;95241.03;5008554;28;20453;-57
2022/01/21 07:45:00;;;;;;;2.47;1.33;;;3.20;91.30;;;2.99;63.04;95253.94;5006484;28;20461;-57
2022/01/21 07:47:27;;;;;;;4.17;1.70;;;3.20;91.20;;;3.03;62.61;95254.59;5008803;28;20485;-57
2022/01/21 07:49:55;;;;;;;10.83;1.40;;;3.20;91.40;;;3.08;62.85;95249.97;5008766;28;20454;-56
2022/01/21 07:52:22;;;;;;;4.77;1.70;;;3.30;91.60;;;3.09;62.48;95246.47;5008536;28;20454;-56
2022/01/21 07:54:49;;;;;;;7.63;2.40;;;3.30;91.30;;;3.10;62.58;95261.13;5009313;28;20458;-57
2022/01/21 07:57:17;;;;;;;1.60;1.40;;;3.30;90.70;;;3.11;61.81;95259.38;5007785;28;20477;-57
2022/01/21 07:59:45;;;;;;;2.77;1.70;;;3.30;90.80;;;3.13;61.81;95253.16;5008133;28;20858;-60
2022/01/21 08:02:13;;;;;;;2.50;1.30;;;3.30;90.80;;;3.17;61.78;95261.63;5008832;28;20496;-57
2022/01/21 08:04:40;;;;;;;1.70;1.60;;;3.30;91.00;;;3.19;61.89;95268.44;5008854;28;20532;-58
2022/01/21 08:07:09;;;;;;;9.63;1.80;;;3.40;90.60;;;3.22;62.64;95276.06;5008815;28;20524;-58
2022/01/21 08:09:36;;;;;;;2.13;1.93;;;3.40;90.70;;;3.25;62.20;95269.81;5008412;28;20458;-58
2022/01/21 08:12:04;;;;;;;3.00;2.30;;;3.40;90.50;;;3.27;61.34;95274.94;5008251;28;20462;-58
2022/01/21 08:14:32;;;;;;;3.20;2.40;;;3.50;90.50;;;3.29;61.69;95278.31;5007509;28;20458;-56
2022/01/21 08:17:01;;;;;;;2.10;1.80;;;3.50;90.30;;;3.29;61.82;95283.50;5008462;28;20469;-58
2022/01/21 08:19:29;;;;;;;3.70;2.27;;;3.50;90.30;;;3.30;61.47;95287.75;5008622;28;20754;-58
2022/01/21 08:21:56;;;;;;;8.17;2.67;;;3.50;90.50;;;3.31;60.75;95285.09;5007239;28;20477;-58
2022/01/21 08:24:24;;;;;;;2.67;2.47;;;3.50;90.10;;;3.34;60.87;95284.09;5006934;28;20450;-58
2022/01/21 08:26:51;;;;;;;5.43;2.60;;;3.50;89.80;;;3.36;60.58;95282.22;5006814;28;20484;-58
2022/01/21 08:29:18;;;;;;;2.60;1.87;;;3.60;89.90;;;3.35;61.76;95293.56;5006676;28;20489;-58
2022/01/21 08:31:46;;;;;;;4.50;2.17;;;3.60;90.00;;;3.38;60.72;95293.41;5007726;28;20484;-58
2022/01/21 08:34:15;;;;;;;3.90;2.37;;;3.60;89.50;;;3.43;61.28;95299.16;5008577;28;20450;-58
2022/01/21 08:36:43;;;;;;;7.57;2.17;;;3.60;89.80;;;3.47;61.11;95297.22;5003943;28;20474;-58
2022/01/21 08:39:13;;;;;;;4.40;1.70;;;3.60;89.00;;;3.52;60.95;95292.63;5007727;28;20906;-56
2022/01/21 08:41:40;;;;;;;4.60;2.40;;;3.70;89.00;;;3.57;61.17;95282.78;5003755;28;20523;-57
2022/01/21 08:44:07;;;;;;;11.17;4.33;;;3.80;89.10;;;3.61;60.65;95270.44;5004733;28;20450;-56
2022/01/21 08:46:35;;;;;;;6.97;3.90;;;3.80;88.40;;;3.62;60.44;95259.94;5002953;28;20861;-57
2022/01/21 08:49:07;;;;;;;10.10;6.30;;;3.80;88.30;;;3.68;59.78;95267.41;5005752;28;20489;-58
2022/01/21 08:51:47;;;;;;;8.50;5.83;;;3.90;88.30;;;3.72;60.37;95283.69;5003283;28;20465;-57
2022/01/21 08:54:15;;;;;;;9.87;4.80;;;3.90;88.20;;;3.78;59.95;95288.53;5007731;28;20456;-58
2022/01/21 08:56:42;;;;;;;7.63;5.00;;;4.00;88.00;;;3.82;59.99;95305.63;5008454;28;20470;-57
2022/01/21 08:59:09;;;;;;;8.20;5.33;;;4.00;87.70;;;3.86;59.35;95308.91;5005533;28;20989;-58
2022/01/21 09:01:36;;;;;;;9.23;5.60;;;4.00;86.80;;;3.90;59.22;95308.66;5005436;28;21014;-58
2022/01/21 09:04:04;;;;;;;18.73;5.70;;;4.10;87.30;;;3.90;59.77;95298.25;5005926;28;20468;-58
2022/01/21 09:06:31;;;;;;;9.13;5.63;;;4.10;87.00;;;3.93;59.42;95307.63;5005458;28;20473;-57
2022/01/21 09:09:00;;;;;;;9.40;5.83;;;4.10;86.40;;;3.92;59.37;95295.56;5006351;28;20499;-58
2022/01/21 09:11:28;;;;;;;12.33;5.03;;;4.10;86.20;;;3.93;59.18;95290.25;5009369;28;20473;-57
2022/01/21 09:13:56;;;;;;;9.80;6.00;;;4.10;86.00;;;3.96;58.79;95271.00;5009189;28;20461;-58
2022/01/21 09:16:23;;;;;;;6.27;4.57;;;4.10;86.30;;;3.98;59.23;95273.53;5008394;28;20998;-57
2022/01/21 09:18:53;;;;;;;4.40;4.00;;;4.20;86.30;;;4.02;59.24;95281.06;5007580;28;20461;-58
2022/01/21 09:21:23;;;;;;;7.50;3.70;;;4.20;86.50;;;4.07;59.04;95259.97;5007990;28;20473;-57
2022/01/21 09:23:51;;;;;;;5.60;3.90;;;4.20;86.30;;;4.12;58.77;95261.38;5011509;28;20548;-58
2022/01/21 09:26:20;;;;;;;7.90;4.90;;;4.30;86.10;;;4.19;58.65;95256.63;5011578;28;20511;-57
2022/01/21 09:28:48;;;;;;;6.00;4.60;;;4.40;85.80;;;4.26;58.34;95244.94;5012922;28;20485;-57
2022/01/21 09:31:16;;;;;;;7.20;4.63;;;4.40;85.60;;;4.31;58.36;95239.44;5011067;28;20499;-57
2022/01/21 09:33:44;;;;;;;8.90;4.87;;;4.50;85.50;;;4.37;58.39;95244.28;5009052;28;20528;-57
2022/01/21 09:36:11;;;;;;;6.83;3.47;;;4.50;85.30;;;4.45;58.43;95238.63;5009265;28;20928;-57
2022/01/21 09:38:38;;;;;;;8.10;4.30;;;4.60;85.30;;;4.51;58.08;95240.84;5002768;28;20875;-58
2022/01/21 09:41:06;;;;;;;2.77;2.50;;;4.70;85.40;;;4.55;58.02;95252.72;5006465;28;20493;-58
2022/01/21 09:43:37;;;;;;;4.03;2.60;;;4.70;84.50;;;4.60;58.08;95242.88;5005418;28;21082;-57
2022/01/21 09:46:07;;;;;;;2.27;2.07;;;4.80;84.10;;;4.65;57.86;95245.22;5003332;28;20828;-57
2022/01/21 09:48:47;;;;;;;3.70;1.60;;;4.80;84.00;;;4.71;57.69;95249.19;5006540;28;20519;-57
2022/01/21 09:51:14;;;;;;;1.70;1.60;;;4.80;83.90;;;4.77;56.95;95235.78;5007085;28;20550;-57
2022/01/21 09:53:42;;;;;;;2.30;1.47;;;4.90;83.10;;;4.83;56.85;95220.63;5010137;28;20461;-57
2022/01/21 09:56:09;;;;;;;1.40;0.80;;;5.00;82.60;;;4.91;56.83;95232.31;5011896;28;20485;-57
2022/01/21 09:58:38;;;;;;;1.87;0.90;;;5.00;82.50;;;4.99;56.80;95230.91;5008268;28;20472;-57
2022/01/21 10:01:06;;;;;;;3.03;1.40;;;5.10;82.20;;;5.11;56.48;95225.84;5008623;28;20969;-58
2022/01/21 10:03:34;;;;;;;3.03;1.27;;;5.20;82.00;;;5.22;56.05;95220.78;5008212;28;20450;-58
2022/01/21 10:06:02;;;;;;;1.20;1.00;;;5.30;81.50;;;5.30;56.06;95223.75;5009835;28;20470;-57
2022/01/21 10:08:30;;;;;;;1.13;1.07;;;5.40;81.30;;;5.35;55.64;95219.06;5010418;28;20873;-57
2022/01/21 10:10:57;;;;;;;2.03;1.40;;;5.50;80.70;;;5.39;55.64;95222.28;5009767;28;20587;-57
2022/01/21 10:13:26;;;;;;;14.20;8.50;;;5.60;80.20;;;5.43;55.23;95213.34;5012161;28;20446;-57
2022/01/21 10:15:54;;;;;;;7.90;4.90;;;5.60;79.70;;;5.47;54.62;95211.34;5009681;28;20483;-57
2022/01/21 10:18:22;;;;;;;13.23;5.70;;;5.60;78.70;;;5.49;54.62;95212.09;5010336;28;20544;-58
2022/01/21 10:21:00;;;;;;;8.00;4.50;;;5.70;78.50;;;5.52;54.75;95201.47;5009956;28;20478;-58
2022/01/21 10:23:28;;;;;;;5.40;3.60;;;5.70;78.80;;;5.54;54.76;95203.03;5009166;28;20456;-57
2022/01/21 10:26:02;;;;;;;4.53;3.73;;;5.70;78.40;;;5.56;54.19;95198.56;5012785;28;20938;-58
2022/01/21 10:28:29;;;;;;;8.10;4.90;;;5.70;77.70;;;5.57;54.51;95208.03;5011427;28;20474;-58
2022/01/21 10:31:13;;;;;;;10.60;5.27;;;5.70;77.50;;;5.57;54.34;95200.22;5009742;28;20512;-57
2022/01/21 10:33:44;;;;;;;9.07;5.40;;;5.70;77.20;;;5.62;53.69;95196.47;5009624;28;20450;-57
2022/01/21 10:36:17;;;;;;;5.67;4.90;;;5.80;77.20;;;5.64;53.65;95205.03;5010064;28;20589;-56
2022/01/21 10:38:46;;;;;;;7.53;4.50;;;5.80;76.40;;;5.71;54.14;95201.09;5008644;28;20934;-58
2022/01/21 10:41:15;;;;;;;5.40;4.13;;;5.80;76.60;;;5.77;53.77;95198.06;5011076;28;20564;-58
2022/01/21 10:43:42;;;;;;;12.33;4.30;;;5.90;76.50;;;5.85;53.82;95201.00;5011428;28;20494;-58
2022/01/21 10:46:15;;;;;;;7.83;4.23;;;6.00;76.60;;;5.92;53.81;95198.81;5009207;28;20485;-57
2022/01/21 10:49:02;;;;;;;6.30;4.00;;;6.00;76.70;;;5.97;53.47;95185.50;5010802;28;20578;-57
2022/01/21 10:51:30;;;;;;;5.57;3.20;;;6.10;76.10;;;5.98;53.09;95182.78;5012735;28;20460;-57
2022/01/21 10:53:59;;;;;;;5.63;2.60;;;6.10;75.00;;;6.02;53.31;95191.22;5011946;28;20480;-58
2022/01/21 10:56:27;;;;;;;3.50;3.20;;;6.10;75.20;;;6.02;52.94;95184.22;5010479;28;20565;-57
2022/01/21 10:58:56;;;;;;;2.73;1.97;;;6.20;75.40;;;6.04;52.96;95184.97;5009330;28;20446;-59
2022/01/21 11:01:29;;;;;;;5.67;3.27;;;6.20;75.20;;;6.05;52.81;95176.19;5010887;28;20469;-58
2022/01/21 11:04:01;;;;;;;3.97;2.30;;;6.20;74.60;;;6.08;52.69;95170.75;5009229;28;20438;-56
2022/01/21 11:06:36;;;;;;;2.17;2.07;;;6.20;74.20;;;6.10;52.69;95174.09;5008950;28;20552;-58
2022/01/21 11:09:21;;;;;;;2.10;2.00;;;6.30;74.20;;;6.13;52.25;95175.66;5009961;28;20496;-57
2022/01/21 11:11:49;;;;;;;2.60;1.80;;;6.20;73.00;;;6.17;51.85;95169.28;5010013;28;20810;-58
2022/01/21 11:14:17;;;;;;;2.23;2.13;;;6.30;73.10;;;6.18;51.83;95172.72;5009440;28;20458;-57